createdAt,value
2023-05-20T00:04:17.742Z,32.70
2023-05-20T00:09:19.526Z,25.10
2023-05-20T00:14:21.650Z,32.80
2023-05-20T00:19:23.589Z,34.00
2023-05-20T00:24:25.972Z,34.50
2023-05-20T00:29:28.728Z,34.90
2023-05-20T00:34:30.518Z,33.30
2023-05-20T00:39:32.605Z,33.00
2023-05-20T00:44:34.340Z,32.60
2023-05-20T00:49:36.337Z,35.20
2023-05-20T00:54:39.661Z,38.20
2023-05-20T00:59:44.087Z,28.60
2023-05-20T01:04:47.397Z,35.90
2023-05-20T01:09:49.575Z,34.60
2023-05-20T01:15:00.484Z,32.40
2023-05-20T01:20:02.760Z,34.90
2023-05-20T01:25:05.386Z,36.70
2023-05-20T01:30:08.152Z,32.00
2023-05-20T01:35:10.995Z,37.80
2023-05-20T01:40:15.777Z,37.10
2023-05-20T01:45:17.634Z,35.60
2023-05-20T01:50:19.462Z,41.60
2023-05-20T01:55:21.323Z,39.80
2023-05-20T02:00:23.256Z,37.90
2023-05-20T02:05:25.186Z,39.80
2023-05-20T02:10:26.925Z,40.70
2023-05-20T02:15:28.701Z,35.80
2023-05-20T02:20:31.912Z,38.30
2023-05-20T02:25:36.499Z,35.80
2023-05-20T02:30:38.809Z,33.40
2023-05-20T02:35:40.569Z,40.30
2023-05-20T02:40:45.644Z,34.90
2023-05-20T02:45:47.458Z,34.90
2023-05-20T02:50:50.392Z,37.80
2023-05-20T02:55:52.243Z,35.10
2023-05-20T03:00:53.956Z,35.10
2023-05-20T03:05:55.697Z,39.00
2023-05-20T03:10:59.548Z,34.50
2023-05-20T03:16:02.858Z,34.50
2023-05-20T03:21:04.931Z,37.50
2023-05-20T03:26:06.868Z,36.70
2023-05-20T03:31:08.737Z,41.40
2023-05-20T03:36:10.906Z,30.10
2023-05-20T03:41:13.474Z,35.00
2023-05-20T03:51:17.280Z,34.70
2023-05-20T03:56:21.135Z,40.80
2023-05-20T04:01:25.678Z,32.40
2023-05-20T04:06:27.695Z,30.00
2023-05-20T04:11:30.301Z,25.70
2023-05-20T04:16:32.203Z,22.60
2023-05-20T04:21:33.963Z,23.90
2023-05-20T04:26:35.835Z,19.00
2023-05-20T04:31:38.691Z,17.90
2023-05-20T04:36:40.949Z,20.70
2023-05-20T04:41:43.071Z,18.80
2023-05-20T04:46:46.793Z,17.80
2023-05-20T04:51:50.086Z,16.80
2023-05-20T04:56:53.752Z,17.80
2023-05-20T05:01:55.799Z,13.00
2023-05-20T05:11:59.671Z,14.30
2023-05-20T05:17:01.421Z,13.40
2023-05-20T05:22:03.696Z,10.40
2023-05-20T05:32:08.073Z,11.10
2023-05-20T05:37:10.088Z,8.20
2023-05-20T05:42:12.466Z,10.50
2023-05-20T05:47:15.093Z,11.80
2023-05-20T05:52:17.138Z,13.20
2023-05-20T05:57:18.932Z,12.10
2023-05-20T06:07:24.372Z,12.10
2023-05-20T06:12:26.902Z,12.60
2023-05-20T06:17:28.678Z,10.00
2023-05-20T06:22:30.529Z,9.70
2023-05-20T06:32:34.528Z,12.60
2023-05-20T06:37:36.541Z,12.00
2023-05-20T06:47:40.987Z,13.50
2023-05-20T06:52:43.579Z,13.40
2023-05-20T06:57:46.712Z,13.10
2023-05-20T07:02:50.114Z,14.40
2023-05-20T07:12:54.081Z,12.10
2023-05-20T07:17:56.000Z,13.90
2023-05-20T07:22:58.141Z,15.10
2023-05-20T07:28:07.275Z,11.40
2023-05-20T07:33:09.086Z,14.50
2023-05-20T07:38:12.807Z,15.80
2023-05-20T07:43:15.429Z,13.70
2023-05-20T07:48:18.480Z,13.10
2023-05-20T07:53:20.379Z,14.40
2023-05-20T07:58:22.622Z,15.80
2023-05-20T08:03:26.931Z,12.90
2023-05-20T08:08:45.187Z,12.80
2023-05-20T08:13:52.943Z,11.40
2023-05-20T08:18:56.028Z,13.30
2023-05-20T08:23:58.220Z,9.80
2023-05-20T08:29:00.439Z,12.80
2023-05-20T08:34:02.300Z,11.90
2023-05-20T08:44:10.588Z,14.60
2023-05-20T08:49:12.641Z,12.50
2023-05-20T08:54:16.877Z,13.20
2023-05-20T08:59:19.220Z,14.50
2023-05-20T09:04:21.009Z,12.60
2023-05-20T09:09:23.672Z,13.20
2023-05-20T09:14:27.250Z,15.20
2023-05-20T09:19:29.040Z,18.40
2023-05-20T09:24:31.199Z,18.10
2023-05-20T09:29:33.961Z,15.80
2023-05-20T09:34:36.102Z,14.70
2023-05-20T09:39:52.282Z,14.10
2023-05-20T09:44:54.604Z,14.20
2023-05-20T09:49:56.668Z,15.70
2023-05-20T09:54:59.860Z,14.80
2023-05-20T10:00:02.571Z,16.10
2023-05-20T10:05:25.878Z,13.50
2023-05-20T10:10:49.094Z,16.90
2023-05-20T10:16:04.385Z,16.60
2023-05-20T10:21:18.854Z,15.40
2023-05-20T10:26:22.569Z,16.00
2023-05-20T10:31:25.827Z,18.80
2023-05-20T10:36:30.647Z,16.80
2023-05-20T10:41:34.771Z,20.30
2023-05-20T10:46:53.833Z,17.80
2023-05-20T10:51:59.989Z,17.40
2023-05-20T10:57:09.270Z,19.10
2023-05-20T11:02:12.591Z,19.40
2023-05-20T11:07:31.540Z,19.50
2023-05-20T11:12:33.350Z,18.00
2023-05-20T11:17:35.167Z,19.30
2023-05-20T11:22:36.988Z,17.40
2023-05-20T11:27:39.933Z,19.70
2023-05-20T11:32:42.355Z,17.20
2023-05-20T11:37:44.474Z,19.20
2023-05-20T11:42:46.280Z,21.40
2023-05-20T11:47:59.456Z,18.50
2023-05-20T11:53:04.065Z,19.20
2023-05-20T11:58:05.932Z,19.50
2023-05-20T12:03:07.965Z,20.10
2023-05-20T12:08:10.345Z,18.60
2023-05-20T12:13:13.563Z,16.50
2023-05-20T12:18:15.614Z,26.10
2023-05-20T12:23:17.331Z,22.80
2023-05-20T12:28:19.169Z,21.30
2023-05-20T12:33:21.227Z,24.80
2023-05-20T12:38:22.924Z,24.60
2023-05-20T12:43:24.677Z,26.80
2023-05-20T12:48:26.480Z,27.20
2023-05-20T12:53:28.212Z,24.50
2023-05-20T12:58:30.039Z,26.80
2023-05-20T13:03:32.049Z,25.10
2023-05-20T13:08:33.824Z,25.60
2023-05-20T13:13:35.629Z,24.10
2023-05-20T13:23:40.537Z,23.60
2023-05-20T13:28:42.556Z,25.40
2023-05-20T13:33:44.316Z,25.70
2023-05-20T13:38:46.186Z,27.90
2023-05-20T13:43:48.055Z,24.10
2023-05-20T13:48:50.068Z,22.80
2023-05-20T13:53:51.787Z,24.90
2023-05-20T14:03:55.382Z,24.10
2023-05-20T14:08:57.379Z,25.90
2023-05-20T14:13:59.145Z,25.80
2023-05-20T14:19:00.978Z,21.30
2023-05-20T14:24:02.838Z,22.30
2023-05-20T14:29:04.643Z,22.80
2023-05-20T14:34:06.387Z,21.90
2023-05-20T14:39:08.114Z,21.50
2023-05-20T14:44:09.916Z,19.70
2023-05-20T14:49:11.889Z,22.80
2023-05-20T14:54:15.128Z,20.00
2023-05-20T14:59:16.915Z,24.20
2023-05-20T15:04:18.779Z,17.60
2023-05-20T15:09:20.805Z,21.10
2023-05-20T15:14:22.688Z,19.60
2023-05-20T15:19:24.808Z,20.10
2023-05-20T15:24:26.552Z,19.90
2023-05-20T15:29:28.244Z,21.70
2023-05-20T15:34:29.945Z,21.20
2023-05-20T15:39:31.760Z,20.90
2023-05-20T15:44:35.288Z,18.40
2023-05-20T15:49:37.679Z,19.20
2023-05-20T15:54:39.401Z,20.70
2023-05-20T15:59:41.383Z,20.70
2023-05-20T16:04:43.204Z,18.80
2023-05-20T16:09:45.085Z,21.10
2023-05-20T16:14:46.781Z,19.30
2023-05-20T16:19:49.326Z,16.90
2023-05-20T16:24:51.237Z,18.60
2023-05-20T16:29:53.031Z,18.20
2023-05-20T16:34:55.144Z,17.20
2023-05-20T16:39:57.012Z,15.60
2023-05-20T16:44:58.742Z,14.20
2023-05-20T16:50:00.747Z,17.30
2023-05-20T16:55:04.631Z,17.60
2023-05-20T17:00:11.363Z,19.70
2023-05-20T17:05:16.156Z,20.20
2023-05-20T17:10:18.568Z,17.50
2023-05-20T17:15:20.698Z,21.60
2023-05-20T17:20:22.822Z,18.40
2023-05-20T17:25:25.107Z,19.30
2023-05-20T17:30:27.465Z,19.10
2023-05-20T17:35:29.280Z,19.80
2023-05-20T17:40:31.336Z,24.20
2023-05-20T17:45:33.012Z,20.60
2023-05-20T17:50:34.889Z,22.30
2023-05-20T17:55:38.730Z,18.60
2023-05-20T18:00:42.294Z,19.60
2023-05-20T18:05:44.099Z,19.90
2023-05-20T18:15:48.518Z,21.00
2023-05-20T18:20:50.555Z,21.80
2023-05-20T18:25:52.336Z,19.40
2023-05-20T18:35:57.402Z,19.50
2023-05-20T18:46:01.807Z,22.00
2023-05-20T18:51:03.739Z,23.40
2023-05-20T18:56:06.376Z,23.40
2023-05-20T19:01:08.364Z,25.80
2023-05-20T19:06:11.310Z,20.10
2023-05-20T19:11:13.006Z,21.20
2023-05-20T19:16:14.837Z,25.20
2023-05-20T19:21:16.700Z,20.90
2023-05-20T19:26:18.418Z,25.70
2023-05-20T19:31:22.979Z,25.40
2023-05-20T19:36:25.010Z,22.90
2023-05-20T19:46:29.445Z,23.90
2023-05-20T19:51:31.280Z,24.40
2023-05-20T19:56:33.193Z,20.00
2023-05-20T20:06:36.820Z,22.20
2023-05-20T20:11:38.553Z,20.20
2023-05-20T20:16:41.779Z,22.80
2023-05-20T20:21:43.486Z,23.30
2023-05-20T20:31:49.547Z,22.60
2023-05-20T20:36:53.583Z,21.70
2023-05-20T20:41:55.597Z,21.10
2023-05-20T20:52:00.143Z,20.50
2023-05-20T20:57:02.765Z,19.80
2023-05-20T21:02:04.793Z,19.40
2023-05-20T21:07:07.420Z,19.10
2023-05-20T21:12:10.905Z,18.30
2023-05-20T21:17:14.416Z,20.30
2023-05-20T21:22:16.357Z,21.60
2023-05-20T21:27:18.086Z,20.80
2023-05-20T21:32:21.668Z,21.40
2023-05-20T21:37:23.858Z,18.70
2023-05-20T21:42:26.457Z,17.50
2023-05-20T21:47:31.385Z,17.90
2023-05-20T21:52:36.845Z,19.40
2023-05-20T21:57:38.739Z,16.50
2023-05-20T22:02:41.622Z,19.40
2023-05-20T22:07:47.455Z,21.60
2023-05-20T22:12:50.727Z,23.80
2023-05-20T22:17:52.486Z,16.20
2023-05-20T22:22:54.400Z,19.30
2023-05-20T22:27:56.603Z,16.50
2023-05-20T22:32:59.238Z,16.50
2023-05-20T22:38:01.061Z,20.00
2023-05-20T22:43:02.992Z,17.60
2023-05-20T22:48:05.174Z,17.80
2023-05-20T22:53:07.198Z,18.60
2023-05-20T23:03:10.969Z,19.90
2023-05-20T23:08:12.923Z,19.00
2023-05-20T23:13:37.329Z,16.30
2023-05-20T23:18:39.161Z,18.10
2023-05-20T23:28:42.974Z,15.40
2023-05-20T23:33:44.866Z,17.50
2023-05-20T23:38:47.234Z,15.10
2023-05-20T23:43:49.711Z,14.50
2023-05-20T23:49:12.646Z,18.50
2023-05-20T23:54:16.294Z,16.00
2023-05-20T23:59:18.229Z,20.30
